Time;durP1;ratioP1;P1;durP2;ratioP2;P2;SDS_P1;SDS_P2;PMS_P1;PMS_P2;Temp;Humidity;BMP_temperature;BMP_pressure;BME280_temperature;BME280_humidity;BME280_pressure;Samples;Min_cycle;Max_cycle;Signal;HPM_P1;HPM_P2
2024/04/01 00:01:41;;;;;;;2.85;2.40;;;10.40;1.00;;;;;;4990331;28;20069;-84
2024/04/01 00:04:16;;;;;;;3.33;2.63;;;10.40;23.50;;;;;;4982758;28;20493;-85
2024/04/01 00:06:45;;;;;;;4.38;2.90;;;10.40;28.40;;;;;;4977541;28;20374;-85
2024/04/01 00:09:12;;;;;;;3.38;2.58;;;10.40;40.00;;;;;;4993678;28;20492;-86
2024/04/01 00:11:40;;;;;;;3.47;2.50;;;10.30;13.80;;;;;;4978188;28;20058;-83
2024/04/01 00:14:07;;;;;;;3.05;2.10;;;10.30;1.00;;;;;;4978047;28;20049;-85
2024/04/01 00:16:33;;;;;;;2.58;2.08;;;10.30;1.00;;;;;;4994249;28;20054;-86
2024/04/01 00:19:00;;;;;;;2.83;2.20;;;10.30;1.00;;;;;;4976630;28;20562;-86
2024/04/01 00:21:27;;;;;;;3.40;2.35;;;10.20;1.00;;;;;;4993274;28;20053;-85
2024/04/01 00:23:56;;;;;;;2.97;2.20;;;10.20;99.90;;;;;;4977295;28;20061;-85
2024/04/01 00:26:23;;;;;;;3.75;2.00;;;10.20;1.00;;;;;;4977721;28;20056;-85
2024/04/01 00:28:49;;;;;;;2.08;1.40;;;10.20;99.90;;;;;;4972876;28;20114;-86
2024/04/01 00:31:22;;;;;;;2.70;2.08;;;10.20;99.90;;;;;;4973780;28;20054;-85
2024/04/01 00:33:48;;;;;;;2.13;1.77;;;10.20;99.90;;;;;;4992687;28;20061;-85
2024/04/01 00:36:21;;;;;;;1.92;1.27;;;10.20;51.70;;;;;;4975960;28;20092;-85
2024/04/01 00:38:55;;;;;;;1.55;1.20;;;10.20;1.00;;;;;;4993379;28;20117;-85
2024/04/01 00:41:35;;;;;;;1.80;1.60;;;10.20;99.90;;;;;;4999744;28;20207;-84
2024/04/01 00:44:03;;;;;;;2.08;1.33;;;10.20;99.90;;;;;;4982324;28;20475;-84
2024/04/01 00:46:32;;;;;;;1.85;1.23;;;10.20;1.00;;;;;;4994991;28;20058;-83
2024/04/01 00:48:59;;;;;;;1.20;1.00;;;10.20;99.90;;;;;;5023878;28;20067;-84
2024/04/01 00:51:25;;;;;;;0.77;0.63;;;10.20;99.90;;;;;;4990113;28;20057;-84
2024/04/01 00:53:52;;;;;;;0.80;0.52;;;10.20;99.90;;;;;;5020646;28;20065;-84
2024/04/01 00:56:18;;;;;;;1.42;0.73;;;10.20;38.80;;;;;;5005036;28;20050;-85
2024/04/01 00:58:45;;;;;;;0.68;0.68;;;10.10;1.00;;;;;;5005181;28;20073;-84
2024/04/01 01:01:12;;;;;;;0.40;0.30;;;10.10;1.00;;;;;;4991080;28;20049;-84
2024/04/01 01:03:39;;;;;;;0.60;0.40;;;10.10;99.90;;;;;;5007954;28;20057;-85
2024/04/01 01:06:13;;;;;;;0.22;0.22;;;10.10;99.90;;;;;;5000995;28;20533;-83
2024/04/01 01:08:39;;;;;;;0.40;0.40;;;10.10;99.90;;;;;;4999812;28;20068;-85
2024/04/01 01:11:07;;;;;;;0.73;0.50;;;10.10;99.90;;;;;;4999112;28;20057;-85
2024/04/01 01:13:33;;;;;;;0.35;0.30;;;10.10;99.90;;;;;;4981813;28;20061;-84
2024/04/01 01:16:05;;;;;;;0.30;0.30;;;10.10;99.90;;;;;;4983054;28;20923;-84
2024/04/01 01:18:31;;;;;;;0.40;0.40;;;10.10;99.90;;;;;;4982338;28;20050;-85
2024/04/01 01:20:59;;;;;;;1.10;0.43;;;10.00;99.90;;;;;;4980932;28;20068;-84
2024/04/01 01:23:26;;;;;;;0.55;0.47;;;10.00;99.90;;;;;;4978024;28;20057;-85
2024/04/01 01:25:52;;;;;;;0.30;0.30;;;9.90;99.90;;;;;;4994444;28;20049;-84
2024/04/01 01:28:21;;;;;;;0.88;0.57;;;9.90;99.90;;;;;;4975276;28;20060;-83
2024/04/01 01:30:49;;;;;;;0.45;0.45;;;9.90;99.90;;;;;;4974009;28;20112;-86
2024/04/01 01:33:16;;;;;;;0.80;0.50;;;9.90;99.90;;;;;;4977660;28;20413;-85
2024/04/01 01:35:44;;;;;;;0.35;0.32;;;9.90;99.90;;;;;;4992957;28;20065;-85
2024/04/01 01:38:13;;;;;;;0.30;0.28;;;10.00;99.90;;;;;;4978201;28;20057;-86
2024/04/01 01:40:39;;;;;;;0.68;0.57;;;10.00;99.90;;;;;;5011904;28;20049;-85
2024/04/01 01:43:06;;;;;;;0.65;0.60;;;10.00;99.90;;;;;;5010282;28;20050;-85
2024/04/01 01:45:32;;;;;;;1.88;0.47;;;9.90;99.90;;;;;;5012493;28;20484;-85
2024/04/01 01:48:01;;;;;;;0.50;0.50;;;9.90;99.90;;;;;;4998220;28;20056;-85
2024/04/01 01:50:30;;;;;;;0.88;0.52;;;9.80;1.00;;;;;;5014917;28;20464;-84
2024/04/01 01:52:57;;;;;;;0.40;0.40;;;9.80;1.00;;;;;;4999077;28;20046;-83
2024/04/01 01:55:23;;;;;;;0.73;0.50;;;9.70;1.00;;;;;;5016058;28;20065;-84
2024/04/01 01:57:50;;;;;;;0.65;0.40;;;9.70;1.00;;;;;;4999430;28;20080;-85
2024/04/01 02:00:22;;;;;;;2.08;0.50;;;9.60;1.00;;;;;;4998534;28;20408;-85
2024/04/01 02:02:58;;;;;;;0.57;0.38;;;9.60;1.00;;;;;;4998369;28;20045;-83
2024/04/01 02:05:24;;;;;;;0.30;0.30;;;9.50;1.00;;;;;;5000490;28;20061;-84
2024/04/01 02:07:49;;;;;;;0.40;0.40;;;9.50;1.00;;;;;;4983366;28;20053;-84
2024/04/01 02:10:21;;;;;;;0.30;0.25;;;9.50;1.00;;;;;;4998910;28;20050;-84
2024/04/01 02:12:50;;;;;;;0.32;0.32;;;9.40;1.00;;;;;;5016583;28;20053;-84
2024/04/01 02:15:21;;;;;;;0.30;0.30;;;9.30;99.90;;;;;;4980155;28;20046;-84
2024/04/01 02:17:49;;;;;;;0.20;0.20;;;9.30;1.00;;;;;;4997267;28;20066;-84
2024/04/01 02:20:18;;;;;;;0.20;0.20;;;9.20;99.90;;;;;;5000879;28;20053;-83
2024/04/01 02:22:45;;;;;;;0.20;0.20;;;9.20;1.00;;;;;;4985294;28;20053;-85
2024/04/01 02:25:20;;;;;;;0.30;0.30;;;9.10;1.00;;;;;;4984808;28;20079;-84
2024/04/01 02:27:47;;;;;;;0.15;0.15;;;9.10;1.00;;;;;;5006431;28;20053;-85
2024/04/01 02:30:15;;;;;;;0.20;0.20;;;9.00;1.00;;;;;;4990342;28;20064;-84
2024/04/01 02:32:45;;;;;;;0.20;0.20;;;9.00;1.00;;;;;;4982313;28;20440;-84
2024/04/01 02:35:11;;;;;;;0.10;0.10;;;9.00;1.00;;;;;;4978703;28;20064;-84
2024/04/01 02:37:37;;;;;;;0.30;0.30;;;8.90;1.00;;;;;;4994039;28;20090;-84
2024/04/01 02:40:05;;;;;;;0.20;0.20;;;8.90;1.00;;;;;;5008773;28;20061;-83
2024/04/01 02:42:32;;;;;;;0.35;0.30;;;8.80;36.00;;;;;;4981723;28;20390;-84
2024/04/01 02:44:58;;;;;;;0.20;0.20;;;8.70;38.60;;;;;;4998203;28;20048;-84
2024/04/01 02:47:25;;;;;;;0.20;0.20;;;8.70;99.90;;;;;;4998704;28;20061;-84
2024/04/01 02:49:52;;;;;;;0.10;0.10;;;8.70;99.90;;;;;;4997392;28;20444;-84
2024/04/01 02:52:20;;;;;;;0.10;0.10;;;8.70;99.90;;;;;;4998032;28;20466;-84
2024/04/01 02:54:49;;;;;;;0.10;0.10;;;8.70;1.00;;;;;;4981746;28;20623;-84
2024/04/01 02:57:15;;;;;;;0.10;0.10;;;8.80;1.00;;;;;;4981682;28;20053;-84
2024/04/01 02:59:42;;;;;;;0.32;0.20;;;8.80;1.00;;;;;;4981445;28;20056;-84
2024/04/01 03:02:10;;;;;;;0.10;0.10;;;8.90;1.00;;;;;;5013340;28;20057;-84
2024/04/01 03:04:37;;;;;;;0.20;0.20;;;8.90;1.00;;;;;;4978129;28;20057;-85
2024/04/01 03:07:04;;;;;;;0.60;0.43;;;8.90;1.00;;;;;;4993672;28;20640;-84
2024/04/01 03:09:31;;;;;;;0.10;0.10;;;8.90;99.90;;;;;;5003822;28;20144;-85
2024/04/01 03:11:57;;;;;;;0.10;0.10;;;8.90;99.90;;;;;;4981167;28;20505;-85
2024/04/01 03:14:23;;;;;;;0.20;0.20;;;9.00;99.90;;;;;;4995558;28;20072;-85
2024/04/01 03:16:53;;;;;;;0.20;0.20;;;9.00;99.90;;;;;;4995077;28;20045;-84
2024/04/01 03:19:21;;;;;;;0.22;0.20;;;9.00;99.90;;;;;;4992567;28;20571;-84
2024/04/01 03:21:48;;;;;;;0.52;0.20;;;8.90;99.90;;;;;;4976383;28;20054;-85
2024/04/01 03:24:15;;;;;;;0.10;0.10;;;8.90;99.90;;;;;;4994392;28;20061;-85
2024/04/01 03:26:41;;;;;;;0.20;0.20;;;8.90;99.90;;;;;;4991811;28;20053;-84
2024/04/01 03:29:08;;;;;;;0.10;0.10;;;8.80;99.90;;;;;;4995884;28;20463;-84
2024/04/01 03:31:34;;;;;;;0.10;0.10;;;8.80;99.90;;;;;;4995169;28;20053;-84
2024/04/01 03:34:00;;;;;;;0.10;0.10;;;8.70;99.90;;;;;;4996350;28;20111;-84
2024/04/01 03:36:31;;;;;;;0.10;0.10;;;8.70;99.90;;;;;;4996326;28;20060;-85
2024/04/01 03:38:59;;;;;;;0.10;0.10;;;8.70;99.90;;;;;;4996487;28;20397;-86
2024/04/01 03:41:27;;;;;;;0.10;0.10;;;8.70;99.90;;;;;;4996516;28;20049;-83
2024/04/01 03:43:55;;;;;;;0.10;0.10;;;8.60;99.90;;;;;;5013663;28;20143;-85
2024/04/01 03:46:22;;;;;;;0.10;0.10;;;8.70;99.90;;;;;;4980828;28;20563;-86
2024/04/01 03:48:49;;;;;;;0.10;0.10;;;8.60;99.90;;;;;;4980988;28;20060;-84
2024/04/01 03:51:16;;;;;;;0.20;0.20;;;8.60;99.90;;;;;;4996882;28;20146;-84
2024/04/01 03:53:42;;;;;;;0.20;0.17;;;8.70;99.90;;;;;;4995050;28;20049;-82
2024/04/01 03:56:09;;;;;;;0.10;0.10;;;8.70;99.90;;;;;;4976014;28;20454;-83
2024/04/01 03:58:36;;;;;;;0.20;0.20;;;8.70;99.90;;;;;;4995274;28;20104;-83
2024/04/01 04:01:02;;;;;;;0.10;0.10;;;8.70;99.90;;;;;;4979759;28;20056;-83
2024/04/01 04:03:28;;;;;;;0.10;0.10;;;8.80;99.90;;;;;;4978835;28;20103;-85
2024/04/01 04:05:56;;;;;;;0.20;0.20;;;8.80;99.90;;;;;;5011261;28;20053;-84
2024/04/01 04:08:22;;;;;;;0.20;0.20;;;8.90;99.90;;;;;;4980101;28;20064;-83
2024/04/01 04:10:49;;;;;;;0.10;0.10;;;8.90;99.90;;;;;;4980935;28;20057;-83
2024/04/01 04:13:15;;;;;;;0.20;0.20;;;9.00;99.90;;;;;;4981271;28;20073;-83
2024/04/01 04:15:41;;;;;;;0.45;0.45;;;9.00;99.90;;;;;;4998613;28;20057;-84
2024/04/01 04:18:07;;;;;;;0.20;0.20;;;9.00;99.90;;;;;;4982057;28;20100;-85
2024/04/01 04:20:34;;;;;;;0.10;0.10;;;9.10;99.90;;;;;;4982070;28;20133;-83
2024/04/01 04:23:02;;;;;;;0.10;0.10;;;9.10;94.50;;;;;;4980922;28;20191;-86
2024/04/01 04:25:28;;;;;;;0.10;0.10;;;9.00;98.80;;;;;;4997026;28;20547;-85
2024/04/01 04:27:59;;;;;;;0.10;0.10;;;9.10;99.90;;;;;;4997435;28;20405;-85
2024/04/01 04:30:30;;;;;;;0.20;0.20;;;9.10;80.80;;;;;;5014386;28;20476;-86
2024/04/01 04:32:59;;;;;;;0.17;0.17;;;9.10;99.90;;;;;;4997482;28;20061;-85
2024/04/01 04:35:25;;;;;;;0.45;0.30;;;9.10;99.90;;;;;;4998689;28;20061;-86
2024/04/01 04:37:51;;;;;;;0.20;0.20;;;9.00;99.90;;;;;;5018384;28;20051;-83
2024/04/01 04:40:18;;;;;;;0.20;0.20;;;9.00;99.90;;;;;;5001557;28;20543;-85
2024/04/01 04:42:44;;;;;;;0.10;0.10;;;9.00;99.90;;;;;;4986350;28;20385;-84
2024/04/01 04:45:14;;;;;;;0.20;0.20;;;8.90;99.90;;;;;;5002325;28;20061;-85
2024/04/01 04:47:40;;;;;;;0.28;0.28;;;8.90;99.90;;;;;;4988970;28;20060;-84
2024/04/01 04:50:07;;;;;;;0.20;0.20;;;8.80;99.90;;;;;;5012570;28;20053;-84
2024/04/01 04:52:33;;;;;;;0.20;0.20;;;8.80;99.90;;;;;;5008306;28;20053;-84
2024/04/01 04:55:01;;;;;;;0.20;0.20;;;8.80;99.80;;;;;;4989996;28;20084;-84
2024/04/01 04:57:27;;;;;;;0.20;0.20;;;8.70;1.00;;;;;;4990114;28;20054;-84
2024/04/01 04:59:57;;;;;;;0.10;0.10;;;8.70;1.00;;;;;;4993180;28;20072;-84
2024/04/01 05:02:24;;;;;;;0.45;0.22;;;8.70;1.00;;;;;;5007926;28;20062;-84
2024/04/01 05:04:49;;;;;;;0.10;0.10;;;8.60;1.00;;;;;;5024167;28;20198;-83
2024/04/01 05:07:16;;;;;;;0.17;0.17;;;8.60;99.90;;;;;;4991476;28;20437;-83
2024/04/01 05:09:43;;;;;;;0.10;0.10;;;8.50;99.90;;;;;;5007539;28;20057;-84
2024/04/01 05:12:15;;;;;;;0.15;0.10;;;8.50;99.90;;;;;;5019216;28;20053;-84
2024/04/01 05:14:41;;;;;;;0.43;0.28;;;8.40;99.90;;;;;;5017439;28;20080;-83
2024/04/01 05:17:09;;;;;;;0.20;0.15;;;8.40;99.90;;;;;;5000260;28;20076;-85
2024/04/01 05:19:35;;;;;;;0.17;0.17;;;8.40;99.90;;;;;;4995679;28;20057;-84
2024/04/01 05:22:01;;;;;;;0.28;0.28;;;8.40;99.90;;;;;;5000047;28;20091;-85
2024/04/01 05:24:31;;;;;;;0.17;0.17;;;8.30;99.90;;;;;;5000622;28;20500;-84
2024/04/01 05:26:57;;;;;;;0.10;0.10;;;8.30;99.90;;;;;;5002614;28;20053;-85
2024/04/01 05:29:26;;;;;;;0.10;0.10;;;8.30;99.90;;;;;;4984736;28;20087;-84
2024/04/01 05:31:53;;;;;;;0.10;0.10;;;8.20;99.90;;;;;;4999688;28;20061;-84
2024/04/01 05:34:22;;;;;;;0.10;0.10;;;8.20;99.90;;;;;;4980613;28;20057;-85
2024/04/01 05:36:49;;;;;;;0.17;0.17;;;8.20;1.00;;;;;;4996314;28;20058;-85
2024/04/01 05:39:15;;;;;;;0.20;0.20;;;8.20;1.00;;;;;;4993462;28;20053;-85
2024/04/01 05:41:42;;;;;;;0.10;0.10;;;8.10;1.00;;;;;;4980046;28;20066;-85
2024/04/01 05:44:08;;;;;;;0.63;0.35;;;8.10;1.00;;;;;;4983343;28;20065;-84
2024/04/01 05:46:35;;;;;;;0.17;0.17;;;8.10;1.00;;;;;;4981854;28;20484;-84
2024/04/01 05:49:01;;;;;;;0.10;0.10;;;8.00;1.00;;;;;;4977776;28;20065;-83
2024/04/01 05:51:28;;;;;;;0.10;0.10;;;8.00;1.00;;;;;;4978893;28;20830;-85
2024/04/01 05:53:55;;;;;;;0.10;0.10;;;8.00;19.60;;;;;;4981422;28;20058;-84
2024/04/01 05:56:21;;;;;;;0.28;0.20;;;7.90;62.00;;;;;;4995440;28;20050;-84
2024/04/01 05:58:48;;;;;;;0.45;0.10;;;7.90;80.70;;;;;;4980741;28;20137;-84
2024/04/01 06:01:15;;;;;;;0.10;0.10;;;7.90;52.70;;;;;;4981813;28;20062;-84
2024/04/01 06:03:40;;;;;;;0.10;0.10;;;7.90;22.70;;;;;;4977322;28;20123;-85
2024/04/01 06:06:08;;;;;;;0.10;0.10;;;7.90;57.80;;;;;;5039980;28;20049;-85
2024/04/01 06:08:34;;;;;;;0.10;0.10;;;7.90;99.90;;;;;;5005404;28;20057;-84
2024/04/01 06:11:04;;;;;;;0.20;0.20;;;7.90;99.90;;;;;;4991343;28;20115;-84
2024/04/01 06:13:31;;;;;;;0.10;0.10;;;7.90;99.90;;;;;;4980708;28;20053;-85
2024/04/01 06:15:57;;;;;;;0.40;0.30;;;8.00;99.90;;;;;;4973949;28;20046;-85
2024/04/01 06:18:23;;;;;;;0.20;0.20;;;8.10;99.90;;;;;;4985011;28;20049;-85
2024/04/01 06:20:49;;;;;;;0.10;0.10;;;8.20;19.20;;;;;;4992593;28;20056;-85
2024/04/01 06:23:17;;;;;;;0.20;0.20;;;8.20;1.00;;;;;;4991974;28;20090;-86
2024/04/01 06:25:44;;;;;;;0.20;0.20;;;8.20;1.00;;;;;;4974460;28;20056;-85
2024/04/01 06:28:10;;;;;;;0.10;0.10;;;8.10;1.00;;;;;;4990780;28;20061;-86
2024/04/01 06:30:41;;;;;;;0.40;0.20;;;8.20;1.00;;;;;;4990043;28;20073;-87
2024/04/01 06:33:08;;;;;;;0.25;0.10;;;8.10;11.40;;;;;;4992283;28;20083;-84
2024/04/01 06:35:34;;;;;;;0.25;0.20;;;8.20;95.10;;;;;;5034647;28;20045;-79
2024/04/01 06:38:00;;;;;;;0.10;0.10;;;8.20;99.90;;;;;;5014183;28;20120;-79
2024/04/01 06:40:26;;;;;;;0.22;0.10;;;8.20;99.90;;;;;;5005656;28;20084;-79
2024/04/01 06:42:52;;;;;;;0.43;0.15;;;8.20;99.90;;;;;;5013296;28;20106;-79
2024/04/01 06:45:18;;;;;;;0.20;0.20;;;8.30;99.90;;;;;;5023674;28;20076;-79
2024/04/01 06:47:47;;;;;;;0.20;0.20;;;8.30;99.90;;;;;;4987382;28;20145;-79
2024/04/01 06:50:13;;;;;;;0.10;0.10;;;8.40;99.90;;;;;;4998686;28;20075;-79
2024/04/01 06:52:39;;;;;;;0.20;0.20;;;8.40;99.90;;;;;;5022407;28;20046;-78
2024/04/01 06:55:05;;;;;;;0.10;0.10;;;8.50;99.90;;;;;;5005912;28;20053;-78
2024/04/01 06:57:31;;;;;;;0.43;0.17;;;8.50;99.90;;;;;;5002799;28;20133;-79
2024/04/01 06:59:57;;;;;;;0.30;0.20;;;8.60;99.90;;;;;;5005869;28;20049;-79
2024/04/01 07:02:23;;;;;;;0.20;0.20;;;8.70;99.90;;;;;;5009064;28;20064;-79
2024/04/01 07:04:49;;;;;;;0.28;0.20;;;8.70;99.90;;;;;;5005345;28;20072;-78
2024/04/01 07:07:15;;;;;;;0.40;0.22;;;8.70;99.90;;;;;;5027239;28;20049;-78
2024/04/01 07:09:41;;;;;;;0.28;0.28;;;8.80;99.90;;;;;;5021837;28;20417;-80
2024/04/01 07:12:07;;;;;;;0.30;0.30;;;8.90;99.90;;;;;;5002664;28;20057;-81
2024/04/01 07:14:33;;;;;;;0.57;0.30;;;8.90;99.90;;;;;;5006997;28;20057;-83
2024/04/01 07:17:01;;;;;;;0.30;0.30;;;9.00;1.00;;;;;;4981003;28;20053;-84
2024/04/01 07:19:27;;;;;;;0.20;0.20;;;9.00;1.00;;;;;;4972752;28;20064;-83
2024/04/01 07:21:53;;;;;;;0.35;0.20;;;9.00;1.00;;;;;;4988875;28;20054;-81
2024/04/01 07:24:19;;;;;;;0.98;0.20;;;9.00;1.00;;;;;;4988817;28;20061;-80
2024/04/01 07:26:44;;;;;;;0.10;0.10;;;9.10;1.00;;;;;;4989039;28;20084;-81
2024/04/01 07:29:10;;;;;;;0.20;0.20;;;9.10;99.90;;;;;;4977119;28;20112;-80
2024/04/01 07:31:36;;;;;;;0.10;0.10;;;9.10;99.90;;;;;;4973384;28;20057;-81
2024/04/01 07:34:02;;;;;;;0.28;0.28;;;9.20;99.90;;;;;;4982046;28;20049;-81
2024/04/01 07:36:28;;;;;;;0.20;0.20;;;9.30;99.90;;;;;;4994641;28;20054;-80
2024/04/01 07:38:54;;;;;;;0.65;0.35;;;9.30;99.90;;;;;;5005379;28;20084;-80
2024/04/01 07:41:20;;;;;;;0.20;0.20;;;9.40;50.00;;;;;;4972535;28;20053;-82
2024/04/01 07:43:46;;;;;;;0.22;0.20;;;9.50;1.00;;;;;;4972823;28;20132;-78
2024/04/01 07:46:12;;;;;;;0.43;0.20;;;9.60;1.00;;;;;;4989400;28;20134;-76
2024/04/01 07:48:38;;;;;;;0.85;0.40;;;9.60;99.90;;;;;;5005518;28;20329;-80
2024/04/01 07:51:04;;;;;;;0.28;0.20;;;9.70;99.90;;;;;;4986183;28;20100;-80
2024/04/01 07:53:32;;;;;;;0.17;0.17;;;9.80;99.90;;;;;;4999905;28;20097;-81
2024/04/01 07:55:58;;;;;;;0.30;0.20;;;9.90;99.90;;;;;;5002406;28;20061;-81
2024/04/01 07:58:24;;;;;;;0.50;0.20;;;9.90;1.00;;;;;;4969481;28;20058;-81
2024/04/01 08:00:50;;;;;;;0.20;0.20;;;10.00;99.90;;;;;;4984070;28;20061;-81
2024/04/01 08:03:16;;;;;;;1.02;0.30;;;10.00;99.90;;;;;;4981654;28;20053;-82
2024/04/01 08:05:42;;;;;;;0.95;0.40;;;10.00;99.90;;;;;;4986540;28;20092;-81
2024/04/01 08:08:09;;;;;;;0.50;0.30;;;10.10;99.90;;;;;;4991726;28;20049;-83
2024/04/01 08:10:36;;;;;;;0.90;0.20;;;10.10;99.90;;;;;;4992360;28;20050;-83
2024/04/01 08:13:02;;;;;;;0.63;0.20;;;10.10;99.90;;;;;;4992140;28;20100;-82
2024/04/01 08:15:28;;;;;;;0.47;0.30;;;10.20;99.90;;;;;;4976919;28;20057;-83
2024/04/01 08:17:54;;;;;;;0.25;0.20;;;10.50;99.90;;;;;;4990039;28;20488;-83
2024/04/01 08:20:20;;;;;;;0.52;0.32;;;10.60;99.90;;;;;;4976512;28;20049;-83
2024/04/01 08:22:46;;;;;;;0.20;0.20;;;10.60;99.90;;;;;;4992530;28;20060;-83
2024/04/01 08:25:13;;;;;;;0.20;0.20;;;10.70;99.90;;;;;;4976721;28;20520;-82
2024/04/01 08:27:39;;;;;;;0.20;0.20;;;10.70;99.90;;;;;;4975024;28;20061;-83
2024/04/01 08:30:05;;;;;;;0.20;0.15;;;10.70;99.90;;;;;;4991457;28;20045;-83
2024/04/01 08:32:32;;;;;;;0.10;0.10;;;10.70;99.90;;;;;;4990503;28;20202;-83
2024/04/01 08:34:59;;;;;;;0.17;0.17;;;10.70;99.90;;;;;;4992786;28;20061;-84
2024/04/01 08:37:24;;;;;;;0.90;0.38;;;10.80;99.90;;;;;;4992306;28;20049;-83
2024/04/01 08:39:50;;;;;;;0.43;0.20;;;10.90;99.90;;;;;;4975283;28;20087;-83
2024/04/01 08:42:18;;;;;;;0.20;0.20;;;10.90;99.90;;;;;;4991142;28;20122;-82
2024/04/01 08:44:46;;;;;;;0.30;0.30;;;11.00;99.90;;;;;;5008831;28;20072;-79
2024/04/01 08:47:12;;;;;;;0.32;0.20;;;11.00;99.90;;;;;;5024851;28;20052;-77
2024/04/01 08:49:48;;;;;;;0.20;0.20;;;10.90;99.90;;;;;;4991370;28;20088;-76
2024/04/01 08:52:15;;;;;;;0.60;0.30;;;10.90;99.90;;;;;;4992361;28;20053;-76
2024/04/01 08:54:41;;;;;;;0.60;0.30;;;10.90;99.90;;;;;;5007659;28;20519;-76
2024/04/01 08:57:07;;;;;;;0.30;0.30;;;10.90;99.90;;;;;;5008488;28;20061;-76
2024/04/01 08:59:34;;;;;;;0.50;0.20;;;11.00;99.90;;;;;;4992065;28;20065;-76
2024/04/01 09:02:01;;;;;;;0.20;0.20;;;11.10;99.90;;;;;;4983062;28;20080;-77
2024/04/01 09:04:29;;;;;;;0.40;0.22;;;11.30;99.90;;;;;;5018654;28;20049;-77
2024/04/01 09:06:56;;;;;;;0.22;0.22;;;11.40;99.90;;;;;;5002580;28;20045;-77
2024/04/01 09:09:22;;;;;;;0.10;0.10;;;11.40;99.90;;;;;;5018021;28;20061;-76
2024/04/01 09:11:49;;;;;;;0.20;0.20;;;11.50;99.90;;;;;;4998505;28;20064;-77
2024/04/01 09:14:16;;;;;;;0.20;0.20;;;11.70;99.90;;;;;;4966553;28;20057;-77
2024/04/01 09:16:42;;;;;;;0.10;0.10;;;11.80;99.90;;;;;;4996923;28;20050;-77
2024/04/01 09:19:09;;;;;;;0.55;0.40;;;11.90;99.90;;;;;;4992717;28;20130;-77
2024/04/01 09:21:35;;;;;;;0.10;0.10;;;12.10;99.90;;;;;;5000982;28;20065;-76
2024/04/01 09:24:01;;;;;;;0.10;0.10;;;12.10;99.90;;;;;;5001874;28;20053;-77
2024/04/01 09:26:31;;;;;;;0.45;0.30;;;12.20;99.90;;;;;;5001892;28;20053;-77
2024/04/01 09:28:57;;;;;;;0.10;0.10;;;12.20;99.90;;;;;;5002461;28;20060;-77
2024/04/01 09:31:23;;;;;;;0.52;0.20;;;12.20;99.90;;;;;;5002106;28;20054;-78
2024/04/01 09:33:49;;;;;;;0.20;0.20;;;12.30;99.90;;;;;;4999271;28;20053;-76
2024/04/01 09:36:16;;;;;;;0.30;0.30;;;12.40;99.90;;;;;;5014349;28;20057;-76
2024/04/01 09:38:42;;;;;;;0.20;0.20;;;12.50;99.90;;;;;;4998513;28;20054;-76
2024/04/01 09:41:08;;;;;;;0.85;0.30;;;12.70;99.90;;;;;;5001662;28;20057;-76
2024/04/01 09:43:34;;;;;;;1.02;0.28;;;13.00;97.70;;;;;;5018428;28;20483;-76
2024/04/01 09:46:00;;;;;;;0.20;0.20;;;13.20;90.70;;;;;;5018848;28;20125;-77
2024/04/01 09:48:27;;;;;;;0.25;0.25;;;13.30;99.90;;;;;;5019695;28;20079;-76
2024/04/01 09:50:58;;;;;;;1.08;0.25;;;13.40;95.40;;;;;;5001619;28;20405;-78
2024/04/01 09:53:25;;;;;;;0.20;0.20;;;13.60;99.90;;;;;;5002062;28;20053;-77
2024/04/01 09:56:01;;;;;;;0.25;0.25;;;13.70;87.00;;;;;;5003290;28;20060;-77
2024/04/01 09:58:48;;;;;;;0.20;0.20;;;13.80;88.50;;;;;;4998301;28;20061;-78
2024/04/01 10:02:19;;;;;;;0.65;0.20;;;13.90;99.90;;;;;;5012720;28;20500;-78
2024/04/01 10:05:28;;;;;;;0.10;0.10;;;13.80;99.90;;;;;;4964003;28;20054;-77
2024/04/01 10:08:09;;;;;;;0.20;0.20;;;13.80;99.90;;;;;;4986079;28;20123;-78
2024/04/01 10:11:19;;;;;;;0.20;0.20;;;14.00;99.90;;;;;;5019727;28;20441;-77
2024/04/01 10:14:03;;;;;;;0.30;0.30;;;14.10;99.90;;;;;;4999455;28;20045;-78
2024/04/01 10:16:46;;;;;;;0.52;0.20;;;14.10;99.90;;;;;;5039805;28;20386;-79
2024/04/01 10:19:49;;;;;;;0.45;0.22;;;14.00;99.90;;;;;;5023466;28;20054;-78
2024/04/01 10:22:33;;;;;;;0.22;0.22;;;14.00;99.90;;;;;;5023571;28;20054;-78
2024/04/01 10:25:08;;;;;;;0.20;0.20;;;14.20;99.90;;;;;;5022671;28;20053;-78
2024/04/01 10:27:53;;;;;;;0.70;0.10;;;14.30;99.90;;;;;;5000122;28;20065;-78
2024/04/01 10:30:40;;;;;;;1.17;0.30;;;14.50;99.90;;;;;;5023008;28;20045;-78
2024/04/01 10:33:13;;;;;;;0.30;0.30;;;14.60;99.90;;;;;;5022673;28;20049;-78
2024/04/01 10:35:54;;;;;;;0.32;0.30;;;14.50;99.90;;;;;;5020817;28;20405;-78
2024/04/01 10:38:32;;;;;;;0.20;0.20;;;14.50;99.90;;;;;;5026493;28;20065;-79
2024/04/01 10:41:17;;;;;;;0.20;0.20;;;14.60;99.90;;;;;;5015552;28;20057;-78
2024/04/01 10:44:04;;;;;;;0.15;0.15;;;14.90;99.90;;;;;;5031024;28;20053;-78
2024/04/01 10:46:42;;;;;;;0.20;0.20;;;15.10;99.90;;;;;;5006227;28;20078;-78
2024/04/01 10:49:36;;;;;;;0.30;0.30;;;15.20;99.90;;;;;;5028763;28;20420;-78
2024/04/01 10:52:30;;;;;;;0.20;0.20;;;15.30;99.90;;;;;;5040145;28;20056;-78
2024/04/01 10:55:02;;;;;;;0.25;0.20;;;15.70;99.90;;;;;;5035709;28;20465;-78
2024/04/01 10:58:02;;;;;;;0.10;0.10;;;15.90;99.90;;;;;;5023033;28;20058;-78
2024/04/01 11:01:01;;;;;;;1.02;0.30;;;16.10;99.90;;;;;;5022937;28;20118;-78
2024/04/01 11:03:51;;;;;;;0.20;0.20;;;16.30;99.90;;;;;;5004968;28;20407;-78
2024/04/01 11:06:24;;;;;;;0.20;0.20;;;16.30;99.90;;;;;;5007063;28;20061;-79
2024/04/01 11:09:31;;;;;;;0.30;0.30;;;16.40;99.90;;;;;;5016548;28;20080;-78
2024/04/01 11:12:23;;;;;;;0.47;0.30;;;16.50;99.90;;;;;;5001577;28;20049;-83
2024/04/01 11:14:50;;;;;;;0.20;0.20;;;16.60;99.90;;;;;;5015757;28;20045;-78
2024/04/01 11:17:17;;;;;;;0.40;0.30;;;16.60;99.90;;;;;;5000486;28;20174;-80
2024/04/01 11:19:54;;;;;;;0.38;0.22;;;16.40;99.90;;;;;;4999617;28;20621;-78
2024/04/01 11:22:44;;;;;;;0.10;0.10;;;16.20;99.90;;;;;;5000570;28;20790;-78
2024/04/01 11:25:16;;;;;;;0.35;0.20;;;16.10;99.90;;;;;;4996784;28;20057;-79
2024/04/01 11:28:14;;;;;;;0.20;0.20;;;16.00;99.90;;;;;;4996834;28;20057;-79
2024/04/01 11:30:40;;;;;;;0.30;0.30;;;15.90;99.90;;;;;;4993546;28;20771;-80
2024/04/01 11:33:10;;;;;;;0.10;0.10;;;15.80;99.90;;;;;;4999929;28;20151;-78
2024/04/01 11:35:43;;;;;;;0.13;0.13;;;15.80;99.90;;;;;;4999797;28;20129;-78
2024/04/01 11:38:20;;;;;;;0.30;0.20;;;15.60;99.90;;;;;;5016347;28;20060;-79
2024/04/01 11:40:47;;;;;;;0.20;0.10;;;15.60;99.90;;;;;;5004566;28;20057;-78
2024/04/01 11:43:13;;;;;;;0.38;0.15;;;15.60;99.90;;;;;;4984334;28;20418;-77
2024/04/01 11:45:41;;;;;;;0.20;0.20;;;15.50;99.90;;;;;;5000327;28;20143;-78
2024/04/01 11:48:07;;;;;;;0.20;0.20;;;15.40;99.90;;;;;;5000593;28;20115;-78
2024/04/01 11:50:34;;;;;;;0.17;0.17;;;15.40;99.90;;;;;;5000196;28;20159;-78
2024/04/01 11:53:02;;;;;;;0.20;0.20;;;15.30;99.90;;;;;;4983185;28;20057;-81
2024/04/01 11:55:28;;;;;;;0.25;0.20;;;15.30;99.90;;;;;;5016114;28;20045;-78
2024/04/01 11:57:54;;;;;;;0.10;0.10;;;15.30;99.90;;;;;;4999829;28;20639;-77
2024/04/01 12:00:20;;;;;;;0.15;0.15;;;15.30;99.90;;;;;;5016322;28;20361;-78
2024/04/01 12:02:56;;;;;;;0.15;0.15;;;15.30;99.90;;;;;;4965758;28;20045;-78
2024/04/01 12:05:22;;;;;;;0.15;0.10;;;15.50;99.90;;;;;;5016790;28;20053;-79
2024/04/01 12:07:51;;;;;;;0.10;0.10;;;15.60;99.90;;;;;;4999667;28;20057;-79
2024/04/01 12:10:17;;;;;;;0.10;0.10;;;15.50;99.90;;;;;;4999444;28;20110;-79
2024/04/01 12:12:47;;;;;;;0.10;0.10;;;15.30;99.90;;;;;;4999766;28;20116;-77
2024/04/01 12:15:17;;;;;;;0.30;0.20;;;15.00;99.90;;;;;;4999127;28;20076;-78
2024/04/01 12:17:43;;;;;;;0.10;0.10;;;14.70;99.90;;;;;;5000389;28;20069;-79
2024/04/01 12:20:10;;;;;;;0.15;0.10;;;14.50;99.90;;;;;;4982998;28;20061;-78
2024/04/01 12:22:36;;;;;;;0.28;0.20;;;14.40;99.90;;;;;;5017411;28;20045;-86
2024/04/01 12:25:03;;;;;;;0.17;0.17;;;14.30;99.90;;;;;;4967948;28;20084;-89
2024/04/01 12:27:32;;;;;;;0.20;0.20;;;14.20;99.90;;;;;;4995332;28;20129;-84
2024/04/01 12:30:01;;;;;;;0.25;0.25;;;14.20;99.90;;;;;;4997762;28;20045;-85
2024/04/01 12:32:27;;;;;;;0.20;0.20;;;14.20;99.90;;;;;;4985310;28;20068;-84
2024/04/01 12:34:54;;;;;;;0.20;0.20;;;14.30;99.90;;;;;;4984226;28;20057;-84
2024/04/01 12:37:24;;;;;;;1.63;0.38;;;14.30;99.90;;;;;;4984981;28;20146;-85
2024/04/01 12:39:53;;;;;;;0.30;0.25;;;14.30;99.90;;;;;;4999423;28;20053;-82
2024/04/01 12:42:19;;;;;;;0.20;0.20;;;14.40;99.90;;;;;;4999936;28;20053;-82
2024/04/01 12:44:45;;;;;;;0.30;0.30;;;14.40;99.90;;;;;;5000192;28;20137;-82
2024/04/01 12:47:13;;;;;;;0.32;0.20;;;14.60;99.90;;;;;;5000842;28;20053;-83
2024/04/01 12:49:40;;;;;;;0.10;0.10;;;14.70;99.90;;;;;;4974508;28;20061;-85
2024/04/01 12:52:08;;;;;;;0.20;0.20;;;14.90;99.90;;;;;;4985578;28;20045;-84
2024/04/01 12:54:53;;;;;;;0.20;0.20;;;15.00;99.90;;;;;;5000188;28;20057;-81
2024/04/01 12:57:28;;;;;;;0.30;0.30;;;15.10;99.90;;;;;;5018493;28;20460;-82
2024/04/01 13:00:07;;;;;;;0.20;0.20;;;15.20;99.90;;;;;;4987787;28;20050;-83
2024/04/01 13:02:48;;;;;;;0.10;0.10;;;15.20;99.90;;;;;;5006542;28;20057;-84
2024/04/01 13:05:24;;;;;;;0.20;0.20;;;15.10;99.90;;;;;;5003214;28;20045;-81